Mc Entire JNGB Airport Eastover US
ICAO: KMMT
IATA: MMT
Category: Medium
Scheduled Services: No

Elevation: 254 ft
TransAlt. 18000 ft.

Airport Communications:
SHAW APP/DEP:125.4
CTAF:132.4
GND:127.625
ARNG OPS PTD:41.3
ANG OPS PTD:125.12
PMSV METRO:34.25
PTD:29.83
TWR:132.4

KMMT Zoom In..

Runways:

(A) RW 05 length 2033 ft width 90 ft
---- / hdg 49

(B) RW 14 length 9010 ft width 150 ft
---- / hdg 139

(C) RW 23 length 2033 ft width 90 ft
---- / hdg 229

(D) RW 32 length 9010 ft width 150 ft
ILS 111.10 / hdg 319

Location; KMMT
Day. 26 / Time. 03.56 Zulu
* Altimeter: 30.01
* Temperature: 21° c. 69.8°f.
* Wind from: 130° Speed 04 kn.
Dewpoint: 21° c.
Visibility: 10 Statute Miles.
Clouds: Clear (automated report).

KMMT 260356Z AUTO 13004KT 10SM CLR 21/21 A3001 RMK AO2 SLP163 T02110211 $


Wind From 130°
Speed 04 kn.

 
 
jpsmedia.com for Web Design SOUNDCLOUD worldairports.se 2018   terms of use